sensor_id;sensor_type;location;lat;lon;timestamp;temperature;humidity
774;DHT22;370;48.810;9.150;2023-05-07T00:02:06;13.10;34.70
774;DHT22;370;48.810;9.150;2023-05-07T00:04:33;13.10;34.10
774;DHT22;370;48.810;9.150;2023-05-07T00:07:04;13.10;33.20
774;DHT22;370;48.810;9.150;2023-05-07T00:09:31;13.00;33.10
774;DHT22;370;48.810;9.150;2023-05-07T00:11:58;13.10;31.90
774;DHT22;370;48.810;9.150;2023-05-07T00:14:25;13.10;33.20
774;DHT22;370;48.810;9.150;2023-05-07T00:16:51;13.00;33.20
774;DHT22;370;48.810;9.150;2023-05-07T00:19:18;13.00;33.10
774;DHT22;370;48.810;9.150;2023-05-07T00:21:45;12.90;33.50
774;DHT22;370;48.810;9.150;2023-05-07T00:24:13;12.90;35.10
774;DHT22;370;48.810;9.150;2023-05-07T00:26:40;12.80;34.40
774;DHT22;370;48.810;9.150;2023-05-07T00:29:07;12.80;36.30
774;DHT22;370;48.810;9.150;2023-05-07T00:31:33;12.80;36.00
774;DHT22;370;48.810;9.150;2023-05-07T00:34:00;12.80;35.70
774;DHT22;370;48.810;9.150;2023-05-07T00:36:27;12.80;37.00
774;DHT22;370;48.810;9.150;2023-05-07T00:38:54;12.70;38.00
774;DHT22;370;48.810;9.150;2023-05-07T00:41:23;12.70;38.00
774;DHT22;370;48.810;9.150;2023-05-07T00:43:50;12.70;37.70
774;DHT22;370;48.810;9.150;2023-05-07T00:46:17;12.80;36.80
774;DHT22;370;48.810;9.150;2023-05-07T00:48:45;12.70;37.40
774;DHT22;370;48.810;9.150;2023-05-07T00:51:12;12.70;37.40
774;DHT22;370;48.810;9.150;2023-05-07T00:53:39;12.60;38.90
774;DHT22;370;48.810;9.150;2023-05-07T00:56:06;12.50;40.20
774;DHT22;370;48.810;9.150;2023-05-07T00:58:35;12.50;41.50
774;DHT22;370;48.810;9.150;2023-05-07T01:01:02;12.50;41.90
774;DHT22;370;48.810;9.150;2023-05-07T01:03:29;12.50;40.80
774;DHT22;370;48.810;9.150;2023-05-07T01:05:57;12.60;39.90
774;DHT22;370;48.810;9.150;2023-05-07T01:08:25;12.60;38.80
774;DHT22;370;48.810;9.150;2023-05-07T01:10:54;12.50;39.30
774;DHT22;370;48.810;9.150;2023-05-07T01:13:21;12.40;41.20
774;DHT22;370;48.810;9.150;2023-05-07T01:15:49;12.50;41.80
774;DHT22;370;48.810;9.150;2023-05-07T01:18:16;12.60;40.20
774;DHT22;370;48.810;9.150;2023-05-07T01:20:43;12.70;38.80
774;DHT22;370;48.810;9.150;2023-05-07T01:23:11;12.70;37.30
774;DHT22;370;48.810;9.150;2023-05-07T01:25:38;12.70;36.60
774;DHT22;370;48.810;9.150;2023-05-07T01:28:05;12.80;36.10
774;DHT22;370;48.810;9.150;2023-05-07T01:30:33;12.80;35.80
774;DHT22;370;48.810;9.150;2023-05-07T01:33:03;12.80;35.40
774;DHT22;370;48.810;9.150;2023-05-07T01:35:36;12.80;35.00
774;DHT22;370;48.810;9.150;2023-05-07T01:38:03;12.80;34.60
774;DHT22;370;48.810;9.150;2023-05-07T01:40:33;12.80;35.00
774;DHT22;370;48.810;9.150;2023-05-07T01:43:01;12.70;35.30
774;DHT22;370;48.810;9.150;2023-05-07T01:45:29;12.80;34.40
774;DHT22;370;48.810;9.150;2023-05-07T01:47:57;12.70;35.00
774;DHT22;370;48.810;9.150;2023-05-07T01:50:25;12.70;35.30
774;DHT22;370;48.810;9.150;2023-05-07T01:52:52;12.80;35.60
774;DHT22;370;48.810;9.150;2023-05-07T01:55:19;12.80;35.20
774;DHT22;370;48.810;9.150;2023-05-07T01:57:47;12.80;35.90
774;DHT22;370;48.810;9.150;2023-05-07T02:00:14;12.70;36.10
774;DHT22;370;48.810;9.150;2023-05-07T02:02:41;12.80;36.30
774;DHT22;370;48.810;9.150;2023-05-07T02:05:08;12.80;35.80
774;DHT22;370;48.810;9.150;2023-05-07T02:07:35;12.80;35.30
774;DHT22;370;48.810;9.150;2023-05-07T02:10:02;12.80;35.00
774;DHT22;370;48.810;9.150;2023-05-07T02:12:29;12.90;34.60
774;DHT22;370;48.810;9.150;2023-05-07T02:14:57;12.90;34.10
774;DHT22;370;48.810;9.150;2023-05-07T02:17:24;12.90;33.50
774;DHT22;370;48.810;9.150;2023-05-07T02:22:54;12.90;33.70
774;DHT22;370;48.810;9.150;2023-05-07T02:25:20;12.90;33.40
774;DHT22;370;48.810;9.150;2023-05-07T02:27:47;13.00;33.10
774;DHT22;370;48.810;9.150;2023-05-07T02:30:15;13.00;33.10
774;DHT22;370;48.810;9.150;2023-05-07T02:32:42;12.90;33.00
774;DHT22;370;48.810;9.150;2023-05-07T02:35:09;12.90;33.00
774;DHT22;370;48.810;9.150;2023-05-07T02:37:36;12.90;33.00
774;DHT22;370;48.810;9.150;2023-05-07T02:40:03;12.80;32.90
774;DHT22;370;48.810;9.150;2023-05-07T02:42:30;12.80;32.90
774;DHT22;370;48.810;9.150;2023-05-07T02:44:56;12.70;32.80
774;DHT22;370;48.810;9.150;2023-05-07T02:47:24;12.70;33.40
774;DHT22;370;48.810;9.150;2023-05-07T02:49:52;12.60;33.90
774;DHT22;370;48.810;9.150;2023-05-07T02:52:19;12.50;34.50
774;DHT22;370;48.810;9.150;2023-05-07T02:54:46;12.50;35.30
774;DHT22;370;48.810;9.150;2023-05-07T02:57:12;12.40;35.40
774;DHT22;370;48.810;9.150;2023-05-07T03:03:03;12.30;37.10
774;DHT22;370;48.810;9.150;2023-05-07T03:05:29;12.20;37.60
774;DHT22;370;48.810;9.150;2023-05-07T03:07:56;12.20;38.50
774;DHT22;370;48.810;9.150;2023-05-07T03:10:23;12.10;38.40
774;DHT22;370;48.810;9.150;2023-05-07T03:12:49;12.00;39.60
774;DHT22;370;48.810;9.150;2023-05-07T03:15:16;12.00;40.00
774;DHT22;370;48.810;9.150;2023-05-07T03:17:43;11.90;40.20
774;DHT22;370;48.810;9.150;2023-05-07T03:20:11;11.90;41.10
774;DHT22;370;48.810;9.150;2023-05-07T03:22:38;11.80;41.60
774;DHT22;370;48.810;9.150;2023-05-07T03:25:06;11.80;42.20
774;DHT22;370;48.810;9.150;2023-05-07T03:27:33;11.80;43.10
774;DHT22;370;48.810;9.150;2023-05-07T03:30:00;11.80;42.80
774;DHT22;370;48.810;9.150;2023-05-07T03:32:27;11.70;42.40
774;DHT22;370;48.810;9.150;2023-05-07T03:34:53;11.60;42.10
774;DHT22;370;48.810;9.150;2023-05-07T03:37:22;11.60;43.30
774;DHT22;370;48.810;9.150;2023-05-07T03:39:49;11.50;42.80
774;DHT22;370;48.810;9.150;2023-05-07T03:42:16;11.50;44.30
774;DHT22;370;48.810;9.150;2023-05-07T03:44:42;11.50;44.50
774;DHT22;370;48.810;9.150;2023-05-07T03:47:09;11.50;45.10
774;DHT22;370;48.810;9.150;2023-05-07T03:49:36;11.40;45.40
774;DHT22;370;48.810;9.150;2023-05-07T03:52:04;11.40;45.90
774;DHT22;370;48.810;9.150;2023-05-07T03:54:32;11.40;45.80
774;DHT22;370;48.810;9.150;2023-05-07T03:56:59;11.40;46.40
774;DHT22;370;48.810;9.150;2023-05-07T03:59:25;11.40;47.20
774;DHT22;370;48.810;9.150;2023-05-07T04:01:52;11.40;47.90
774;DHT22;370;48.810;9.150;2023-05-07T04:04:19;11.40;48.60
774;DHT22;370;48.810;9.150;2023-05-07T04:06:46;11.40;48.60
774;DHT22;370;48.810;9.150;2023-05-07T04:09:13;11.40;48.50
774;DHT22;370;48.810;9.150;2023-05-07T04:11:42;11.40;48.50
774;DHT22;370;48.810;9.150;2023-05-07T04:14:09;11.40;48.60
774;DHT22;370;48.810;9.150;2023-05-07T04:16:36;11.50;48.80
774;DHT22;370;48.810;9.150;2023-05-07T04:19:02;11.50;48.70
774;DHT22;370;48.810;9.150;2023-05-07T04:21:29;11.50;48.00
774;DHT22;370;48.810;9.150;2023-05-07T04:23:56;11.40;49.00
774;DHT22;370;48.810;9.150;2023-05-07T04:26:23;11.50;48.30
774;DHT22;370;48.810;9.150;2023-05-07T04:28:51;11.50;47.80
774;DHT22;370;48.810;9.150;2023-05-07T04:31:18;11.60;47.80
774;DHT22;370;48.810;9.150;2023-05-07T04:33:45;11.60;47.30
774;DHT22;370;48.810;9.150;2023-05-07T04:36:11;11.60;46.80
774;DHT22;370;48.810;9.150;2023-05-07T04:38:38;11.60;47.00
774;DHT22;370;48.810;9.150;2023-05-07T04:41:06;11.70;46.80
774;DHT22;370;48.810;9.150;2023-05-07T04:43:33;11.70;46.60
774;DHT22;370;48.810;9.150;2023-05-07T04:46:01;11.80;46.30
774;DHT22;370;48.810;9.150;2023-05-07T04:48:28;11.90;46.00
774;DHT22;370;48.810;9.150;2023-05-07T04:50:55;11.90;45.30
774;DHT22;370;48.810;9.150;2023-05-07T04:53:22;12.00;44.50
774;DHT22;370;48.810;9.150;2023-05-07T04:55:48;12.00;44.10
774;DHT22;370;48.810;9.150;2023-05-07T04:58:15;12.00;43.10
774;DHT22;370;48.810;9.150;2023-05-07T05:00:42;12.00;42.40
774;DHT22;370;48.810;9.150;2023-05-07T05:03:10;12.10;42.50
774;DHT22;370;48.810;9.150;2023-05-07T05:05:37;12.10;42.50
774;DHT22;370;48.810;9.150;2023-05-07T05:08:04;12.10;41.70
774;DHT22;370;48.810;9.150;2023-05-07T05:10:30;12.20;41.50
774;DHT22;370;48.810;9.150;2023-05-07T05:12:57;12.20;41.30
774;DHT22;370;48.810;9.150;2023-05-07T05:15:24;12.30;41.80
774;DHT22;370;48.810;9.150;2023-05-07T05:17:50;12.30;41.40
774;DHT22;370;48.810;9.150;2023-05-07T05:20:18;12.40;41.40
774;DHT22;370;48.810;9.150;2023-05-07T05:22:45;12.50;41.30
774;DHT22;370;48.810;9.150;2023-05-07T05:25:12;12.60;40.90
774;DHT22;370;48.810;9.150;2023-05-07T05:27:39;12.70;40.20
774;DHT22;370;48.810;9.150;2023-05-07T05:30:06;12.70;39.20
774;DHT22;370;48.810;9.150;2023-05-07T05:32:33;12.80;39.40
774;DHT22;370;48.810;9.150;2023-05-07T05:35:00;13.00;38.00
774;DHT22;370;48.810;9.150;2023-05-07T05:37:28;13.20;37.30
774;DHT22;370;48.810;9.150;2023-05-07T05:39:55;13.40;34.30
774;DHT22;370;48.810;9.150;2023-05-07T05:42:22;13.50;33.50
774;DHT22;370;48.810;9.150;2023-05-07T05:44:49;13.70;32.40
774;DHT22;370;48.810;9.150;2023-05-07T05:47:16;13.90;29.80
774;DHT22;370;48.810;9.150;2023-05-07T05:49:42;14.10;29.20
774;DHT22;370;48.810;9.150;2023-05-07T05:52:09;14.20;28.00
774;DHT22;370;48.810;9.150;2023-05-07T05:54:37;14.30;27.30
774;DHT22;370;48.810;9.150;2023-05-07T05:57:04;14.40;26.60
774;DHT22;370;48.810;9.150;2023-05-07T05:59:31;14.50;25.30
774;DHT22;370;48.810;9.150;2023-05-07T06:01:58;14.60;22.90
774;DHT22;370;48.810;9.150;2023-05-07T06:04:25;14.70;24.50
774;DHT22;370;48.810;9.150;2023-05-07T06:06:51;15.10;22.70
774;DHT22;370;48.810;9.150;2023-05-07T06:09:18;15.40;19.80
774;DHT22;370;48.810;9.150;2023-05-07T06:11:47;15.70;18.10
774;DHT22;370;48.810;9.150;2023-05-07T06:14:13;16.10;16.70
774;DHT22;370;48.810;9.150;2023-05-07T06:16:40;16.50;14.50
774;DHT22;370;48.810;9.150;2023-05-07T06:19:07;16.70;12.70
774;DHT22;370;48.810;9.150;2023-05-07T06:21:34;17.00;9.80
774;DHT22;370;48.810;9.150;2023-05-07T06:24:00;17.20;8.70
774;DHT22;370;48.810;9.150;2023-05-07T06:26:27;17.30;8.50
774;DHT22;370;48.810;9.150;2023-05-07T06:28:55;17.20;7.80
774;DHT22;370;48.810;9.150;2023-05-07T06:31:22;17.20;8.60
774;DHT22;370;48.810;9.150;2023-05-07T06:33:49;17.50;6.80
774;DHT22;370;48.810;9.150;2023-05-07T06:36:16;17.60;6.40
774;DHT22;370;48.810;9.150;2023-05-07T06:38:42;17.90;5.10
774;DHT22;370;48.810;9.150;2023-05-07T06:41:09;18.20;4.60
774;DHT22;370;48.810;9.150;2023-05-07T06:43:36;18.40;2.80
774;DHT22;370;48.810;9.150;2023-05-07T06:46:04;18.80;1.90
774;DHT22;370;48.810;9.150;2023-05-07T06:48:31;18.80;1.00
774;DHT22;370;48.810;9.150;2023-05-07T06:50:58;19.40;1.00
774;DHT22;370;48.810;9.150;2023-05-07T06:53:25;20.20;1.00
774;DHT22;370;48.810;9.150;2023-05-07T06:55:52;21.00;1.00
774;DHT22;370;48.810;9.150;2023-05-07T06:58:18;21.60;1.00
774;DHT22;370;48.810;9.150;2023-05-07T07:00:45;22.50;1.00
774;DHT22;370;48.810;9.150;2023-05-07T07:03:13;22.90;1.00
774;DHT22;370;48.810;9.150;2023-05-07T07:05:40;23.60;1.00
774;DHT22;370;48.810;9.150;2023-05-07T07:08:07;24.50;1.00
774;DHT22;370;48.810;9.150;2023-05-07T07:10:34;25.20;1.00
774;DHT22;370;48.810;9.150;2023-05-07T07:13:01;25.70;1.00
774;DHT22;370;48.810;9.150;2023-05-07T07:15:28;26.60;1.00
774;DHT22;370;48.810;9.150;2023-05-07T07:17:54;27.40;1.00
774;DHT22;370;48.810;9.150;2023-05-07T07:20:23;28.00;1.00
774;DHT22;370;48.810;9.150;2023-05-07T07:22:49;28.70;1.00
774;DHT22;370;48.810;9.150;2023-05-07T07:25:16;29.40;1.00
774;DHT22;370;48.810;9.150;2023-05-07T07:27:43;30.00;1.00
774;DHT22;370;48.810;9.150;2023-05-07T07:30:10;30.80;1.00
774;DHT22;370;48.810;9.150;2023-05-07T07:32:37;31.30;1.00
774;DHT22;370;48.810;9.150;2023-05-07T07:35:05;31.80;1.00
774;DHT22;370;48.810;9.150;2023-05-07T07:37:33;32.40;1.00
774;DHT22;370;48.810;9.150;2023-05-07T07:40:00;32.50;1.00
774;DHT22;370;48.810;9.150;2023-05-07T07:42:27;32.10;1.00
774;DHT22;370;48.810;9.150;2023-05-07T07:44:54;32.10;1.00
774;DHT22;370;48.810;9.150;2023-05-07T07:47:22;31.50;1.00
774;DHT22;370;48.810;9.150;2023-05-07T07:49:49;30.40;1.00
774;DHT22;370;48.810;9.150;2023-05-07T07:52:15;29.80;1.00
774;DHT22;370;48.810;9.150;2023-05-07T07:54:44;29.60;1.00
774;DHT22;370;48.810;9.150;2023-05-07T07:57:11;29.20;1.00
774;DHT22;370;48.810;9.150;2023-05-07T07:59:37;28.80;1.00
774;DHT22;370;48.810;9.150;2023-05-07T08:02:05;28.20;1.00
774;DHT22;370;48.810;9.150;2023-05-07T08:04:32;27.90;1.00
774;DHT22;370;48.810;9.150;2023-05-07T08:06:58;27.50;1.00
774;DHT22;370;48.810;9.150;2023-05-07T08:09:25;27.80;1.00
774;DHT22;370;48.810;9.150;2023-05-07T08:11:53;27.60;1.00
774;DHT22;370;48.810;9.150;2023-05-07T08:14:20;27.50;1.00
774;DHT22;370;48.810;9.150;2023-05-07T08:16:47;27.50;1.00
774;DHT22;370;48.810;9.150;2023-05-07T08:19:14;27.60;1.00
774;DHT22;370;48.810;9.150;2023-05-07T08:21:40;27.40;1.00
774;DHT22;370;48.810;9.150;2023-05-07T08:24:07;27.60;1.00
774;DHT22;370;48.810;9.150;2023-05-07T08:26:34;28.40;1.00
774;DHT22;370;48.810;9.150;2023-05-07T08:29:02;29.10;1.00
774;DHT22;370;48.810;9.150;2023-05-07T08:31:29;29.20;1.00
774;DHT22;370;48.810;9.150;2023-05-07T08:33:56;29.50;1.00
774;DHT22;370;48.810;9.150;2023-05-07T08:36:23;29.80;1.00
774;DHT22;370;48.810;9.150;2023-05-07T08:38:51;30.00;1.00
774;DHT22;370;48.810;9.150;2023-05-07T08:41:18;29.80;1.00
774;DHT22;370;48.810;9.150;2023-05-07T08:43:47;30.30;1.00
774;DHT22;370;48.810;9.150;2023-05-07T08:46:17;30.30;1.00
774;DHT22;370;48.810;9.150;2023-05-07T08:48:45;30.50;1.00
774;DHT22;370;48.810;9.150;2023-05-07T08:51:13;31.90;1.00
774;DHT22;370;48.810;9.150;2023-05-07T08:53:41;33.00;1.00
774;DHT22;370;48.810;9.150;2023-05-07T08:56:08;33.10;1.00
774;DHT22;370;48.810;9.150;2023-05-07T08:58:36;35.40;1.00
774;DHT22;370;48.810;9.150;2023-05-07T09:01:07;35.90;1.00
774;DHT22;370;48.810;9.150;2023-05-07T09:03:36;36.70;1.00
774;DHT22;370;48.810;9.150;2023-05-07T09:06:03;38.40;1.00
774;DHT22;370;48.810;9.150;2023-05-07T09:08:31;40.00;1.00
774;DHT22;370;48.810;9.150;2023-05-07T09:10:59;40.80;1.00
774;DHT22;370;48.810;9.150;2023-05-07T09:13:27;41.20;1.00
774;DHT22;370;48.810;9.150;2023-05-07T09:15:54;40.90;1.00
774;DHT22;370;48.810;9.150;2023-05-07T09:18:23;40.40;1.00
774;DHT22;370;48.810;9.150;2023-05-07T09:20:51;39.10;1.00
774;DHT22;370;48.810;9.150;2023-05-07T09:23:18;39.40;1.00
774;DHT22;370;48.810;9.150;2023-05-07T09:25:44;38.70;1.00
774;DHT22;370;48.810;9.150;2023-05-07T09:28:11;38.90;1.00
774;DHT22;370;48.810;9.150;2023-05-07T09:30:38;38.60;1.00
774;DHT22;370;48.810;9.150;2023-05-07T09:33:05;37.30;1.00
774;DHT22;370;48.810;9.150;2023-05-07T09:35:32;38.20;1.00
774;DHT22;370;48.810;9.150;2023-05-07T09:38:01;39.70;1.00
774;DHT22;370;48.810;9.150;2023-05-07T09:40:30;40.50;1.00
774;DHT22;370;48.810;9.150;2023-05-07T09:43:09;40.90;1.00
774;DHT22;370;48.810;9.150;2023-05-07T09:45:37;42.90;1.00
774;DHT22;370;48.810;9.150;2023-05-07T09:48:05;44.10;1.00
774;DHT22;370;48.810;9.150;2023-05-07T09:50:36;44.80;1.00
774;DHT22;370;48.810;9.150;2023-05-07T09:53:04;46.30;1.00
774;DHT22;370;48.810;9.150;2023-05-07T09:55:32;46.90;1.00
774;DHT22;370;48.810;9.150;2023-05-07T09:57:58;48.50;1.00
774;DHT22;370;48.810;9.150;2023-05-07T10:00:28;47.40;1.00
774;DHT22;370;48.810;9.150;2023-05-07T10:02:57;46.40;1.00
774;DHT22;370;48.810;9.150;2023-05-07T10:05:25;46.30;1.00
774;DHT22;370;48.810;9.150;2023-05-07T10:07:53;44.10;1.00
774;DHT22;370;48.810;9.150;2023-05-07T10:10:21;41.10;1.00
774;DHT22;370;48.810;9.150;2023-05-07T10:12:48;40.70;1.00
774;DHT22;370;48.810;9.150;2023-05-07T10:15:16;41.30;1.00
774;DHT22;370;48.810;9.150;2023-05-07T10:17:44;40.70;1.00
774;DHT22;370;48.810;9.150;2023-05-07T10:20:11;42.20;1.00
774;DHT22;370;48.810;9.150;2023-05-07T10:22:40;43.50;1.00
774;DHT22;370;48.810;9.150;2023-05-07T10:25:14;44.90;1.00
774;DHT22;370;48.810;9.150;2023-05-07T10:27:45;46.10;1.00
774;DHT22;370;48.810;9.150;2023-05-07T10:30:18;45.50;1.00
774;DHT22;370;48.810;9.150;2023-05-07T10:32:49;46.70;1.00
774;DHT22;370;48.810;9.150;2023-05-07T10:35:21;47.80;1.00
774;DHT22;370;48.810;9.150;2023-05-07T10:37:49;46.30;1.00
774;DHT22;370;48.810;9.150;2023-05-07T10:40:16;45.60;1.00
774;DHT22;370;48.810;9.150;2023-05-07T10:42:57;43.50;1.00
774;DHT22;370;48.810;9.150;2023-05-07T10:45:25;41.80;1.00
774;DHT22;370;48.810;9.150;2023-05-07T10:48:11;41.60;1.00
774;DHT22;370;48.810;9.150;2023-05-07T10:50:39;39.90;1.00
774;DHT22;370;48.810;9.150;2023-05-07T10:53:23;38.60;1.00
774;DHT22;370;48.810;9.150;2023-05-07T10:59:32;36.50;1.00
774;DHT22;370;48.810;9.150;2023-05-07T11:02:03;36.20;1.00
774;DHT22;370;48.810;9.150;2023-05-07T11:04:32;36.90;1.00
774;DHT22;370;48.810;9.150;2023-05-07T11:07:25;37.60;1.00
774;DHT22;370;48.810;9.150;2023-05-07T11:10:04;36.30;1.00
774;DHT22;370;48.810;9.150;2023-05-07T11:12:47;36.30;1.00
774;DHT22;370;48.810;9.150;2023-05-07T11:15:36;36.70;1.00
774;DHT22;370;48.810;9.150;2023-05-07T11:18:04;35.90;1.00
774;DHT22;370;48.810;9.150;2023-05-07T11:20:53;35.70;1.00
774;DHT22;370;48.810;9.150;2023-05-07T11:23:58;35.00;1.00
774;DHT22;370;48.810;9.150;2023-05-07T11:26:27;34.50;1.00
774;DHT22;370;48.810;9.150;2023-05-07T11:28:54;33.50;1.00
774;DHT22;370;48.810;9.150;2023-05-07T11:31:25;33.50;1.00
774;DHT22;370;48.810;9.150;2023-05-07T11:33:54;33.10;1.00
774;DHT22;370;48.810;9.150;2023-05-07T11:36:22;32.60;1.00
774;DHT22;370;48.810;9.150;2023-05-07T11:38:49;32.40;1.00
774;DHT22;370;48.810;9.150;2023-05-07T11:41:16;32.10;1.00
774;DHT22;370;48.810;9.150;2023-05-07T11:43:58;31.20;1.00
774;DHT22;370;48.810;9.150;2023-05-07T11:46:27;30.40;1.00
774;DHT22;370;48.810;9.150;2023-05-07T11:48:55;29.70;1.00
774;DHT22;370;48.810;9.150;2023-05-07T11:51:24;29.10;1.00
774;DHT22;370;48.810;9.150;2023-05-07T11:53:52;28.10;1.00
774;DHT22;370;48.810;9.150;2023-05-07T11:56:19;27.50;1.00
774;DHT22;370;48.810;9.150;2023-05-07T11:58:47;27.10;1.00
774;DHT22;370;48.810;9.150;2023-05-07T12:01:15;26.90;1.00
774;DHT22;370;48.810;9.150;2023-05-07T12:03:46;26.60;1.00
774;DHT22;370;48.810;9.150;2023-05-07T12:06:15;26.20;1.00
774;DHT22;370;48.810;9.150;2023-05-07T12:08:43;25.90;1.00
774;DHT22;370;48.810;9.150;2023-05-07T12:11:12;25.70;1.00
774;DHT22;370;48.810;9.150;2023-05-07T12:13:40;25.30;1.00
774;DHT22;370;48.810;9.150;2023-05-07T12:16:07;25.10;1.00
774;DHT22;370;48.810;9.150;2023-05-07T12:18:35;24.90;1.00
774;DHT22;370;48.810;9.150;2023-05-07T12:21:05;24.60;1.00
774;DHT22;370;48.810;9.150;2023-05-07T12:23:33;24.20;1.00
774;DHT22;370;48.810;9.150;2023-05-07T12:26:01;23.90;1.00
774;DHT22;370;48.810;9.150;2023-05-07T12:28:27;23.30;1.00
774;DHT22;370;48.810;9.150;2023-05-07T12:30:57;22.40;1.00
774;DHT22;370;48.810;9.150;2023-05-07T12:33:25;21.80;1.00
774;DHT22;370;48.810;9.150;2023-05-07T12:35:54;21.10;1.00
774;DHT22;370;48.810;9.150;2023-05-07T12:38:23;20.50;1.00
774;DHT22;370;48.810;9.150;2023-05-07T12:40:53;19.90;1.00
774;DHT22;370;48.810;9.150;2023-05-07T12:43:21;19.40;1.10
774;DHT22;370;48.810;9.150;2023-05-07T12:45:51;19.00;4.60
774;DHT22;370;48.810;9.150;2023-05-07T12:48:19;18.70;8.00
774;DHT22;370;48.810;9.150;2023-05-07T12:50:49;18.40;13.90
774;DHT22;370;48.810;9.150;2023-05-07T12:53:16;18.10;17.70
774;DHT22;370;48.810;9.150;2023-05-07T12:55:46;17.80;19.50
774;DHT22;370;48.810;9.150;2023-05-07T12:58:17;17.40;27.40
774;DHT22;370;48.810;9.150;2023-05-07T13:00:44;17.10;33.60
774;DHT22;370;48.810;9.150;2023-05-07T13:03:11;16.80;40.10
774;DHT22;370;48.810;9.150;2023-05-07T13:05:38;16.50;41.80
774;DHT22;370;48.810;9.150;2023-05-07T13:08:05;16.20;49.20
774;DHT22;370;48.810;9.150;2023-05-07T13:10:35;16.00;52.80
774;DHT22;370;48.810;9.150;2023-05-07T13:13:03;15.80;55.70
774;DHT22;370;48.810;9.150;2023-05-07T13:15:31;15.70;58.30
774;DHT22;370;48.810;9.150;2023-05-07T13:17:58;15.60;58.70
774;DHT22;370;48.810;9.150;2023-05-07T13:20:24;15.50;60.30
774;DHT22;370;48.810;9.150;2023-05-07T13:22:51;15.50;64.30
774;DHT22;370;48.810;9.150;2023-05-07T13:25:18;15.40;65.40
774;DHT22;370;48.810;9.150;2023-05-07T13:27:45;15.30;66.90
774;DHT22;370;48.810;9.150;2023-05-07T13:30:13;15.30;67.70
774;DHT22;370;48.810;9.150;2023-05-07T13:32:40;15.20;68.00
774;DHT22;370;48.810;9.150;2023-05-07T13:35:07;15.20;69.00
774;DHT22;370;48.810;9.150;2023-05-07T13:37:34;15.20;69.00
774;DHT22;370;48.810;9.150;2023-05-07T13:40:01;15.20;65.60
774;DHT22;370;48.810;9.150;2023-05-07T13:42:28;15.10;62.30
774;DHT22;370;48.810;9.150;2023-05-07T13:44:56;15.10;52.40
774;DHT22;370;48.810;9.150;2023-05-07T13:47:24;15.00;55.00
774;DHT22;370;48.810;9.150;2023-05-07T13:49:51;15.00;54.40
774;DHT22;370;48.810;9.150;2023-05-07T13:52:19;14.90;47.70
774;DHT22;370;48.810;9.150;2023-05-07T13:54:46;14.90;54.30
774;DHT22;370;48.810;9.150;2023-05-07T13:57:13;14.90;55.60
774;DHT22;370;48.810;9.150;2023-05-07T13:59:40;14.90;55.80
774;DHT22;370;48.810;9.150;2023-05-07T14:02:07;15.00;55.00
774;DHT22;370;48.810;9.150;2023-05-07T14:04:37;15.00;53.90
774;DHT22;370;48.810;9.150;2023-05-07T14:07:04;15.10;55.10
774;DHT22;370;48.810;9.150;2023-05-07T14:09:31;15.30;59.90
774;DHT22;370;48.810;9.150;2023-05-07T14:11:58;15.30;62.30
774;DHT22;370;48.810;9.150;2023-05-07T14:14:25;15.30;60.10
774;DHT22;370;48.810;9.150;2023-05-07T14:16:52;15.40;57.90
774;DHT22;370;48.810;9.150;2023-05-07T14:19:19;15.50;58.70
774;DHT22;370;48.810;9.150;2023-05-07T14:21:49;15.60;62.10
774;DHT22;370;48.810;9.150;2023-05-07T14:24:16;15.60;57.80
774;DHT22;370;48.810;9.150;2023-05-07T14:26:42;15.60;56.00
774;DHT22;370;48.810;9.150;2023-05-07T14:29:10;15.60;55.90
774;DHT22;370;48.810;9.150;2023-05-07T14:31:37;15.50;55.50
774;DHT22;370;48.810;9.150;2023-05-07T14:34:04;15.50;55.50
774;DHT22;370;48.810;9.150;2023-05-07T14:36:31;15.50;60.00
774;DHT22;370;48.810;9.150;2023-05-07T14:38:59;15.50;58.60
774;DHT22;370;48.810;9.150;2023-05-07T14:41:26;15.60;62.60
774;DHT22;370;48.810;9.150;2023-05-07T14:43:53;15.60;60.40
774;DHT22;370;48.810;9.150;2023-05-07T14:46:19;15.60;62.70
774;DHT22;370;48.810;9.150;2023-05-07T14:48:46;15.80;62.60
774;DHT22;370;48.810;9.150;2023-05-07T14:51:13;15.80;60.50
774;DHT22;370;48.810;9.150;2023-05-07T14:53:41;15.90;62.30
774;DHT22;370;48.810;9.150;2023-05-07T14:56:09;16.00;60.20
774;DHT22;370;48.810;9.150;2023-05-07T14:58:36;16.00;59.70
774;DHT22;370;48.810;9.150;2023-05-07T15:01:03;15.90;58.20
774;DHT22;370;48.810;9.150;2023-05-07T15:03:30;16.00;56.40
774;DHT22;370;48.810;9.150;2023-05-07T15:05:57;16.10;57.70
774;DHT22;370;48.810;9.150;2023-05-07T15:08:24;16.10;58.10
774;DHT22;370;48.810;9.150;2023-05-07T15:10:51;16.30;58.30
774;DHT22;370;48.810;9.150;2023-05-07T15:13:19;16.40;62.20
774;DHT22;370;48.810;9.150;2023-05-07T15:15:46;16.60;63.30
774;DHT22;370;48.810;9.150;2023-05-07T15:18:13;16.80;64.30
774;DHT22;370;48.810;9.150;2023-05-07T15:20:40;16.90;61.70
774;DHT22;370;48.810;9.150;2023-05-07T15:23:08;17.00;56.80
774;DHT22;370;48.810;9.150;2023-05-07T15:25:37;17.00;60.70
774;DHT22;370;48.810;9.150;2023-05-07T15:28:04;17.10;58.20
774;DHT22;370;48.810;9.150;2023-05-07T15:30:32;17.20;58.60
774;DHT22;370;48.810;9.150;2023-05-07T15:33:00;17.20;52.00
774;DHT22;370;48.810;9.150;2023-05-07T15:35:27;17.20;57.00
774;DHT22;370;48.810;9.150;2023-05-07T15:37:54;17.40;59.30
774;DHT22;370;48.810;9.150;2023-05-07T15:40:21;17.60;56.20
774;DHT22;370;48.810;9.150;2023-05-07T15:42:47;17.80;58.80
774;DHT22;370;48.810;9.150;2023-05-07T15:45:14;17.90;53.70
774;DHT22;370;48.810;9.150;2023-05-07T15:47:42;18.10;53.50
774;DHT22;370;48.810;9.150;2023-05-07T15:50:10;18.10;51.70
774;DHT22;370;48.810;9.150;2023-05-07T15:52:37;18.30;48.90
774;DHT22;370;48.810;9.150;2023-05-07T15:55:06;18.50;52.20
774;DHT22;370;48.810;9.150;2023-05-07T15:57:34;18.40;48.10
774;DHT22;370;48.810;9.150;2023-05-07T16:00:01;18.50;46.20
774;DHT22;370;48.810;9.150;2023-05-07T16:02:28;18.60;39.80
774;DHT22;370;48.810;9.150;2023-05-07T16:04:56;18.60;41.30
774;DHT22;370;48.810;9.150;2023-05-07T16:07:23;18.70;34.70
774;DHT22;370;48.810;9.150;2023-05-07T16:09:50;18.80;36.60
774;DHT22;370;48.810;9.150;2023-05-07T16:12:17;18.70;41.00
774;DHT22;370;48.810;9.150;2023-05-07T16:14:43;18.70;43.30
774;DHT22;370;48.810;9.150;2023-05-07T16:17:10;18.70;34.90
774;DHT22;370;48.810;9.150;2023-05-07T16:19:37;18.70;28.20
774;DHT22;370;48.810;9.150;2023-05-07T16:22:05;18.60;32.00
774;DHT22;370;48.810;9.150;2023-05-07T16:24:33;18.50;33.20
774;DHT22;370;48.810;9.150;2023-05-07T16:26:59;18.50;32.50
774;DHT22;370;48.810;9.150;2023-05-07T16:29:26;18.50;32.60
774;DHT22;370;48.810;9.150;2023-05-07T16:31:53;18.60;38.10
774;DHT22;370;48.810;9.150;2023-05-07T16:34:20;18.60;39.60
774;DHT22;370;48.810;9.150;2023-05-07T16:36:47;18.50;38.80
774;DHT22;370;48.810;9.150;2023-05-07T16:39:16;18.60;38.10
774;DHT22;370;48.810;9.150;2023-05-07T16:41:43;18.60;36.00
774;DHT22;370;48.810;9.150;2023-05-07T16:44:13;18.60;35.90
774;DHT22;370;48.810;9.150;2023-05-07T16:46:40;18.50;37.90
774;DHT22;370;48.810;9.150;2023-05-07T16:49:06;18.40;39.60
774;DHT22;370;48.810;9.150;2023-05-07T16:51:33;18.40;35.30
774;DHT22;370;48.810;9.150;2023-05-07T16:54:02;18.40;38.40
774;DHT22;370;48.810;9.150;2023-05-07T16:56:30;18.50;40.40